Adventure of The Seas — C6SA3 — position and weather

sailwx.info

Track history (hours):
 
Tides and Currents Weather Stations Pressure Air Temp Water Temp Dewpoint Dewpoint Depression Visibility Wind Speed Wind Dir Waves Ship Positions

Adventure of The Seas

Operator: Royal Caribbean Cruises Ltd

Last reported at 2018-May-18 23:28 UTC. Time now 2018-May-24 13:54 UTC.
Position N 39°27' W 073°55'.

Type: Passenger vessel. MMSI: 311263000.

Date/timePositionNaut miles runAvg speedWind from/ knotsBaromVisibWave heightAir tempDewpointWater temp
2018-May-18 23:28N 39°27' W 073°55'1020.5
2018-May-18 23:00N 39°37' W 073°53'1020.5
2018-May-18 22:30N 39°47' W 073°52'4317.3
2018-May-18 20:02N 40°29' W 073°55'117.9
2018-May-18 20:00N 40°30' W 073°56'816.3
2018-May-18 19:30N 40°36' W 074°02'4 8.3
2018-May-18 18:58N 40°40' W 074°04'0 0.0
2018-May-18 18:22N 40°40' W 074°04'0 0.0
2018-May-18 17:58N 40°40' W 074°04'0 0.0
2018-May-18 17:25N 40°40' W 074°04'0 0.0
2018-May-18 16:58N 40°40' W 074°04'0 0.0
2018-May-18 16:28N 40°40' W 074°04'0 0.0
2018-May-18 15:58N 40°40' W 074°04'0 0.0
2018-May-18 15:19N 40°40' W 074°04'0 0.0
2018-May-18 14:55N 40°40' W 074°04'0 0.0
2018-May-18 14:25N 40°40' W 074°04'0 0.0
2018-May-18 13:58N 40°40' W 074°04'0 0.0
2018-May-18 13:22N 40°40' W 074°04'0 0.0
2018-May-18 12:58N 40°40' W 074°04'0 0.0
2018-May-18 12:28N 40°40' W 074°04'0 0.0
2018-May-18 11:58N 40°40' W 074°04'0 0.0
2018-May-18 11:28N 40°40' W 074°04'0 0.0
2018-May-18 10:58N 40°40' W 074°04'0 0.1
2018-May-18 10:30N 40°40' W 074°04'1 2.0
2018-May-18 10:01N 40°39' W 074°03'3 5.4
2018-May-18 09:30N 40°36' W 074°03'510.2
2018-May-18 09:00N 40°32' W 074°01'2310.7
2018-May-18 06:50N 40°12' W 073°45'711.9
2018-May-18 06:16N 40°05' W 073°44'311.9
2018-May-18 06:00N 40°02' W 073°43'611.9
2018-May-18 05:29N 39°56' W 073°42'  
2018-May-13 06:22N 30°09' W 078°56'820.8
2018-May-13 06:00N 30°15' W 078°51'1321.1
2018-May-13 05:24N 30°26' W 078°43'1621.6
2018-May-13 04:41N 30°39' W 078°34'621.0
2018-May-13 04:24N 30°44' W 078°30'921.2
2018-May-13 03:58N 30°52' W 078°24'22318.8
2018-May-12 16:05N 34°00' W 076°03'519.1
2018-May-12 15:49N 34°04' W 075°59'620.3
2018-May-12 15:30N 34°10' W 075°55'1020.9
2018-May-12 15:00N 34°19' W 075°49'1121.5
2018-May-12 14:30N 34°28' W 075°41'1120.1
2018-May-12 13:58N 34°37' W 075°35'918.9
2018-May-12 13:30N 34°45' W 075°29'1118.7
2018-May-12 12:54N 34°54' W 075°21'718.3
2018-May-12 12:30N 34°60' W 075°16'917.6
2018-May-12 12:00N 35°08' W 075°12'3220.5
2018-May-12 10:27N 35°38' W 075°00'1521.0
2018-May-12 09:45N 35°53' W 074°57'521.2
2018-May-12 09:30N 35°58' W 074°56'1021.1
2018-May-12 09:00N 36°08' W 074°54'1121.2
2018-May-12 08:30N 36°18' W 074°51'1020.9
2018-May-12 08:00N 36°29' W 074°48'1222.8
2018-May-12 07:30N 36°40' W 074°45'1122.1
2018-May-12 06:59N 36°51' W 074°42'8721.5
2018-May-12 02:55N 38°16' W 074°17'7320.7
2018-May-11 23:22N 39°27' W 073°55'820.5
2018-May-11 22:59N 39°35' W 073°53'1020.5
2018-May-11 22:30N 39°45' W 073°53'1020.4
2018-May-11 21:59N 39°55' W 073°51'3916.4
2018-May-11 19:35N 40°34' W 074°02'413.5
2018-May-11 19:19N 40°37' W 074°03'3 0.1
2018-May-10 13:43N 40°40' W 074°04'0 0.0
2018-May-10 13:09N 40°40' W 074°04'0 0.0
2018-May-10 13:00N 40°40' W 074°04'0 0.0
2018-May-10 12:24N 40°40' W 074°04'0 0.0
2018-May-10 11:48N 40°40' W 074°04'0 0.0
2018-May-10 11:06N 40°40' W 074°04'0 0.0
2018-May-10 11:00N 40°40' W 074°04'0 0.0
2018-May-10 10:27N 40°40' W 074°04'0 0.1
2018-May-10 10:00N 40°40' W 074°04'2 3.6
2018-May-10 09:30N 40°38' W 074°03'713.3
2018-May-10 09:00N 40°32' W 074°01'714.0
2018-May-10 08:30N 40°29' W 073°53'5 9.8
2018-May-10 08:00N 40°26' W 073°47'4 8.3
2018-May-10 07:30N 40°22' W 073°47'4 8.7
2018-May-10 07:00N 40°18' W 073°46'5 9.5
2018-May-10 06:29N 40°13' W 073°45'510.2
2018-May-10 06:00N 40°08' W 073°44'510.0
2018-May-10 05:30N 40°03' W 073°43'510.0
2018-May-10 05:00N 39°58' W 073°43'510.0
2018-May-10 04:30N 39°53' W 073°42'510.4
2018-May-10 03:59N 39°48' W 073°40'  
Track history (hours):
 
Tides and Currents Weather Stations Pressure Air Temp Water Temp Dewpoint Dewpoint Depression Visibility Wind Speed Wind Dir Waves Ship Positions

Adventure of The Seas

Operator: Royal Caribbean Cruises Ltd

Last reported at 2018-May-18 23:28 UTC. Time now 2018-May-24 13:54 UTC.
Position N 39°27' W 073°55'.

Type: Passenger vessel. MMSI: 311263000.

Date/timePositionNaut miles runAvg speedWind from/ knotsBaromVisibWave heightAir tempDewpointWater temp
2018-May-18 23:28N 39°27' W 073°55'1020.5
2018-May-18 23:00N 39°37' W 073°53'1020.5
2018-May-18 22:30N 39°47' W 073°52'4317.3
2018-May-18 20:02N 40°29' W 073°55'117.9
2018-May-18 20:00N 40°30' W 073°56'816.3
2018-May-18 19:30N 40°36' W 074°02'4 8.3
2018-May-18 18:58N 40°40' W 074°04'0 0.0
2018-May-18 18:22N 40°40' W 074°04'0 0.0
2018-May-18 17:58N 40°40' W 074°04'0 0.0
2018-May-18 17:25N 40°40' W 074°04'0 0.0
2018-May-18 16:58N 40°40' W 074°04'0 0.0
2018-May-18 16:28N 40°40' W 074°04'0 0.0
2018-May-18 15:58N 40°40' W 074°04'0 0.0
2018-May-18 15:19N 40°40' W 074°04'0 0.0
2018-May-18 14:55N 40°40' W 074°04'0 0.0
2018-May-18 14:25N 40°40' W 074°04'0 0.0
2018-May-18 13:58N 40°40' W 074°04'0 0.0
2018-May-18 13:22N 40°40' W 074°04'0 0.0
2018-May-18 12:58N 40°40' W 074°04'0 0.0
2018-May-18 12:28N 40°40' W 074°04'0 0.0
2018-May-18 11:58N 40°40' W 074°04'0 0.0
2018-May-18 11:28N 40°40' W 074°04'0 0.0
2018-May-18 10:58N 40°40' W 074°04'0 0.1
2018-May-18 10:30N 40°40' W 074°04'1 2.0
2018-May-18 10:01N 40°39' W 074°03'3 5.4
2018-May-18 09:30N 40°36' W 074°03'510.2
2018-May-18 09:00N 40°32' W 074°01'2310.7
2018-May-18 06:50N 40°12' W 073°45'711.9
2018-May-18 06:16N 40°05' W 073°44'311.9
2018-May-18 06:00N 40°02' W 073°43'611.9
2018-May-18 05:29N 39°56' W 073°42'  
2018-May-13 06:22N 30°09' W 078°56'820.8
2018-May-13 06:00N 30°15' W 078°51'1321.1
2018-May-13 05:24N 30°26' W 078°43'1621.6
2018-May-13 04:41N 30°39' W 078°34'621.0
2018-May-13 04:24N 30°44' W 078°30'921.2
2018-May-13 03:58N 30°52' W 078°24'22318.8
2018-May-12 16:05N 34°00' W 076°03'519.1
2018-May-12 15:49N 34°04' W 075°59'620.3
2018-May-12 15:30N 34°10' W 075°55'1020.9
2018-May-12 15:00N 34°19' W 075°49'1121.5
2018-May-12 14:30N 34°28' W 075°41'1120.1
2018-May-12 13:58N 34°37' W 075°35'918.9
2018-May-12 13:30N 34°45' W 075°29'1118.7
2018-May-12 12:54N 34°54' W 075°21'718.3
2018-May-12 12:30N 34°60' W 075°16'917.6
2018-May-12 12:00N 35°08' W 075°12'3220.5
2018-May-12 10:27N 35°38' W 075°00'1521.0
2018-May-12 09:45N 35°53' W 074°57'521.2
2018-May-12 09:30N 35°58' W 074°56'1021.1
2018-May-12 09:00N 36°08' W 074°54'1121.2
2018-May-12 08:30N 36°18' W 074°51'1020.9
2018-May-12 08:00N 36°29' W 074°48'1222.8
2018-May-12 07:30N 36°40' W 074°45'1122.1
2018-May-12 06:59N 36°51' W 074°42'8721.5
2018-May-12 02:55N 38°16' W 074°17'7320.7
2018-May-11 23:22N 39°27' W 073°55'820.5
2018-May-11 22:59N 39°35' W 073°53'1020.5
2018-May-11 22:30N 39°45' W 073°53'1020.4
2018-May-11 21:59N 39°55' W 073°51'3916.4
2018-May-11 19:35N 40°34' W 074°02'413.5
2018-May-11 19:19N 40°37' W 074°03'3 0.1
2018-May-10 13:43N 40°40' W 074°04'0 0.0
2018-May-10 13:09N 40°40' W 074°04'0 0.0
2018-May-10 13:00N 40°40' W 074°04'0 0.0
2018-May-10 12:24N 40°40' W 074°04'0 0.0
2018-May-10 11:48N 40°40' W 074°04'0 0.0
2018-May-10 11:06N 40°40' W 074°04'0 0.0
2018-May-10 11:00N 40°40' W 074°04'0 0.0
2018-May-10 10:27N 40°40' W 074°04'0 0.1
2018-May-10 10:00N 40°40' W 074°04'2 3.6
2018-May-10 09:30N 40°38' W 074°03'713.3
2018-May-10 09:00N 40°32' W 074°01'714.0
2018-May-10 08:30N 40°29' W 073°53'5 9.8
2018-May-10 08:00N 40°26' W 073°47'4 8.3
2018-May-10 07:30N 40°22' W 073°47'4 8.7
2018-May-10 07:00N 40°18' W 073°46'5 9.5
2018-May-10 06:29N 40°13' W 073°45'510.2
2018-May-10 06:00N 40°08' W 073°44'510.0
2018-May-10 05:30N 40°03' W 073°43'510.0
2018-May-10 05:00N 39°58' W 073°43'510.0
2018-May-10 04:30N 39°53' W 073°42'510.4
2018-May-10 03:59N 39°48' W 073°40'  

Dump ship's entire track history